Time;durP1;ratioP1;P1;durP2;ratioP2;P2;SDS_P1;SDS_P2;PMS_P1;PMS_P2;Temp;Humidity;BMP_temperature;BMP_pressure;BME280_temperature;BME280_humidity;BME280_pressure;Samples;Min_cycle;Max_cycle;Signal;HPM_P1;HPM_P2
2022/03/02 00:00:16;;;;;;;63.10;28.80;;;;;;;-0.61;50.77;100045.54;106095;1273;95174;-73
2022/03/02 00:03:04;;;;;;;61.50;29.80;;;;;;;-0.65;50.88;100043.51;106048;1275;113850;-72
2022/03/02 00:05:33;;;;;;;71.30;32.80;;;;;;;-0.68;50.73;100045.63;106039;1274;98584;-71
2022/03/02 00:08:03;;;;;;;62.00;27.70;;;;;;;-0.71;51.15;100044.09;105975;1274;107728;-71
2022/03/02 00:10:32;;;;;;;62.50;29.00;;;;;;;-0.76;50.82;100037.69;106104;1274;97873;-70
2022/03/02 00:13:00;;;;;;;72.00;30.30;;;;;;;-0.81;50.88;100034.95;106077;1274;95163;-70
2022/03/02 00:15:28;;;;;;;71.70;30.40;;;;;;;-0.85;51.09;100030.65;106072;1275;110604;-70
2022/03/02 00:17:56;;;;;;;61.10;26.70;;;;;;;-0.90;51.05;100029.65;106033;1274;97959;-69
2022/03/02 00:20:24;;;;;;;53.80;26.00;;;;;;;-0.98;50.74;100031.29;105972;1274;107763;-70
2022/03/02 00:22:55;;;;;;;60.40;27.70;;;;;;;-1.03;50.81;100030.64;106040;1274;98462;-72
2022/03/02 00:25:23;;;;;;;59.90;25.60;;;;;;;-1.06;50.90;100029.47;106078;1275;97849;-71
2022/03/02 00:27:51;;;;;;;59.00;29.50;;;;;;;-1.09;50.64;100029.83;106089;1276;109117;-71
2022/03/02 00:30:19;;;;;;;57.60;26.50;;;;;;;-1.11;50.79;100026.38;106062;1275;97878;-70
2022/03/02 00:32:47;;;;;;;56.80;27.10;;;;;;;-1.15;50.59;100021.37;106063;1274;107650;-71
2022/03/02 00:35:15;;;;;;;64.00;27.20;;;;;;;-1.19;50.49;100020.52;106040;1274;97951;-69
2022/03/02 00:37:44;;;;;;;60.70;26.60;;;;;;;-1.24;50.72;100016.56;106084;1274;97966;-69
2022/03/02 00:40:13;;;;;;;59.60;26.50;;;;;;;-1.27;50.62;100011.55;106096;1274;111441;-69
2022/03/02 00:42:41;;;;;;;56.10;27.00;;;;;;;-1.33;50.68;100009.86;106129;1274;96990;-69
2022/03/02 00:45:11;;;;;;;57.80;26.80;;;;;;;-1.38;50.72;100007.11;106157;1275;108347;-70
2022/03/02 00:47:40;;;;;;;55.20;25.50;;;;;;;-1.42;50.83;100004.02;106143;1274;97088;-72
2022/03/02 00:50:08;;;;;;;52.80;25.20;;;;;;;-1.47;50.83;99999.37;106203;1274;97942;-72
2022/03/02 00:52:37;;;;;;;59.40;25.10;;;;;;;-1.49;50.83;99995.55;106149;1275;111405;-72
2022/03/02 00:55:05;;;;;;;60.30;25.50;;;;;;;-1.51;50.74;99984.09;106156;1274;98537;-72
2022/03/02 00:57:34;;;;;;;57.30;26.40;;;;;;;-1.55;50.94;99980.13;106139;1274;107365;-70
2022/03/02 01:00:06;;;;;;;57.30;27.40;;;;;;;-1.57;50.83;99978.73;106157;1274;97899;-70
2022/03/02 01:02:34;;;;;;;55.80;23.70;;;;;;;-1.57;50.90;99979.09;106218;1274;97859;-70
2022/03/02 01:05:06;;;;;;;64.40;27.80;;;;;;;-1.57;51.28;99979.61;106139;1274;111459;-71
2022/03/02 01:07:36;;;;;;;61.20;27.50;;;;;;;-1.59;51.00;99977.19;106196;1274;97969;-71
2022/03/02 01:10:07;;;;;;;61.50;27.80;;;;;;;-1.61;51.28;99974.25;106157;1274;107738;-71
2022/03/02 01:12:35;;;;;;;57.50;28.70;;;;;;;-1.62;51.12;99969.04;106181;1274;97967;-70
2022/03/02 01:15:06;;;;;;;59.10;27.70;;;;;;;-1.62;51.16;99968.01;106164;1274;97876;-70
2022/03/02 01:17:35;;;;;;;58.70;25.70;;;;;;;-1.63;51.03;99971.32;106149;1274;111392;-70
2022/03/02 01:20:07;;;;;;;57.00;26.10;;;;;;;-1.65;50.88;99971.16;106147;1274;98076;-72
2022/03/02 01:22:36;;;;;;;61.40;27.70;;;;;;;-1.68;51.09;99970.49;106100;1274;107726;-70
2022/03/02 01:25:07;;;;;;;55.80;25.60;;;;;;;-1.71;51.15;99967.39;106153;1274;97942;-70
2022/03/02 01:27:37;;;;;;;57.30;26.00;;;;;;;-1.76;51.16;99966.72;106161;1274;95243;-73
2022/03/02 01:30:08;;;;;;;52.60;26.00;;;;;;;-1.83;51.04;99964.00;106158;1274;111388;-71
2022/03/02 01:32:36;;;;;;;58.50;27.10;;;;;;;-1.85;51.24;99963.50;106089;1275;95324;-69
2022/03/02 01:35:05;;;;;;;55.30;26.00;;;;;;;-1.86;51.35;99958.81;106144;1274;108381;-70
2022/03/02 01:37:33;;;;;;;60.70;27.10;;;;;;;-1.86;51.16;99959.15;106129;1274;97959;-71
2022/03/02 01:40:01;;;;;;;53.20;24.50;;;;;;;-1.86;51.20;99956.20;106181;1274;95276;-70
2022/03/02 01:42:29;;;;;;;54.20;25.60;;;;;;;-1.87;51.36;99951.70;106136;1274;111401;-70
2022/03/02 01:44:57;;;;;;;59.00;26.70;;;;;;;-1.88;51.53;99947.52;106118;1274;97979;-72
2022/03/02 01:47:28;;;;;;;56.90;25.80;;;;;;;-1.90;51.44;99943.18;106136;1274;107721;-70
2022/03/02 01:49:57;;;;;;;56.80;24.30;;;;;;;-1.91;51.77;99942.15;105952;1275;97961;-70
2022/03/02 01:52:25;;;;;;;55.80;27.00;;;;;;;-1.92;51.67;99942.16;106112;1274;96575;-69
2022/03/02 01:54:53;;;;;;;56.30;25.50;;;;;;;-1.93;51.60;99940.59;106052;1272;111398;-70
2022/03/02 01:57:21;;;;;;;55.50;24.80;;;;;;;-1.93;51.66;99938.69;106170;1273;97944;-70
2022/03/02 01:59:50;;;;;;;51.40;24.20;;;;;;;-1.97;51.65;99940.98;106163;1273;106567;-71
2022/03/02 02:02:18;;;;;;;59.50;26.00;;;;;;;-1.99;51.96;99933.33;106167;1274;97889;-70
2022/03/02 02:04:47;;;;;;;53.20;23.20;;;;;;;-2.00;51.82;99928.48;106178;1274;97876;-70
2022/03/02 02:07:15;;;;;;;58.40;26.00;;;;;;;-2.02;51.63;99929.19;106131;1274;111418;-71
2022/03/02 02:09:44;;;;;;;58.20;25.70;;;;;;;-2.04;51.85;99930.25;106124;1274;98041;-69
2022/03/02 02:12:12;;;;;;;51.30;25.00;;;;;;;-2.06;51.76;99930.43;106094;1273;108329;-70
2022/03/02 02:14:40;;;;;;;59.20;27.00;;;;;;;-2.09;51.71;99930.98;106095;1273;97921;-70
2022/03/02 02:17:09;;;;;;;57.10;26.60;;;;;;;-2.10;51.95;99934.64;106109;1273;97957;-70
2022/03/02 02:19:38;;;;;;;58.20;26.40;;;;;;;-2.09;51.90;99931.68;106109;1274;111428;-69
2022/03/02 02:22:06;;;;;;;50.60;22.40;;;;;;;-2.09;52.05;99927.34;106137;1274;97879;-70
2022/03/02 02:24:34;;;;;;;55.60;24.50;;;;;;;-2.09;51.97;99921.42;106123;1274;108812;-70
2022/03/02 02:27:03;;;;;;;50.30;23.20;;;;;;;-2.13;51.70;99915.54;106122;1274;98069;-70
2022/03/02 02:29:33;;;;;;;59.00;26.60;;;;;;;-2.16;52.01;99915.73;106111;1274;95164;-70
2022/03/02 02:32:02;;;;;;;57.20;26.50;;;;;;;-2.18;52.07;99914.53;106082;1273;111386;-72
2022/03/02 02:34:31;;;;;;;59.70;25.70;;;;;;;-2.18;52.28;99908.45;106111;1274;96503;-72
2022/03/02 02:37:00;;;;;;;55.80;26.40;;;;;;;-2.20;52.29;99906.55;106138;1274;107732;-70
2022/03/02 02:39:28;;;;;;;54.50;24.90;;;;;;;-2.22;52.05;99910.55;106097;1274;97943;-69
2022/03/02 02:42:03;;;;;;;51.10;23.70;;;;;;;-2.23;52.28;99910.91;106143;1273;96996;-69
2022/03/02 02:44:34;;;;;;;54.30;23.30;;;;;;;-2.23;52.26;99909.70;106110;1273;110382;-70
2022/03/02 02:47:03;;;;;;;56.80;24.80;;;;;;;-2.24;52.12;99907.96;106138;1274;95181;-69
2022/03/02 02:49:31;;;;;;;52.60;23.80;;;;;;;-2.23;52.05;99907.96;106114;1274;107745;-69
2022/03/02 02:51:59;;;;;;;56.70;23.40;;;;;;;-2.19;52.12;99905.16;106127;1274;96978;-70
2022/03/02 02:54:27;;;;;;;54.00;22.90;;;;;;;-2.14;51.95;99902.16;106172;1274;97889;-70
2022/03/02 02:56:56;;;;;;;54.10;24.30;;;;;;;-2.05;52.38;99904.89;106166;1274;112041;-70
2022/03/02 02:59:24;;;;;;;53.00;23.50;;;;;;;-2.07;52.00;99904.03;106215;1274;97892;-69
2022/03/02 03:01:52;;;;;;;61.70;26.30;;;;;;;-2.04;52.09;99897.05;106170;1274;106778;-69
2022/03/02 03:04:20;;;;;;;51.60;25.50;;;;;;;-1.98;52.37;99891.42;106082;1274;97960;-70
2022/03/02 03:06:49;;;;;;;55.70;25.50;;;;;;;-1.96;52.26;99893.33;106150;1273;95207;-70
2022/03/02 03:09:18;;;;;;;56.00;25.00;;;;;;;-1.94;52.45;99891.07;106188;1274;111441;-70
2022/03/02 03:11:47;;;;;;;68.50;31.10;;;;;;;-1.90;52.45;99890.16;106223;1273;98416;-69
2022/03/02 03:14:15;;;;;;;61.10;28.30;;;;;;;-1.91;52.52;99887.91;106128;1273;108069;-70
2022/03/02 03:16:44;;;;;;;68.50;34.60;;;;;;;-1.92;52.55;99888.10;106116;1273;95298;-70
2022/03/02 03:19:12;;;;;;;78.80;38.30;;;;;;;-1.97;52.76;99883.61;106217;1273;97963;-70
2022/03/02 03:21:41;;;;;;;78.70;38.60;;;;;;;-2.02;52.40;99885.90;106158;1273;111313;-71
2022/03/02 03:24:09;;;;;;;77.70;40.30;;;;;;;-2.10;52.64;99883.89;106193;1273;97946;-71
2022/03/02 03:26:38;;;;;;;85.60;41.80;;;;;;;-2.14;52.77;99879.41;106181;1273;108133;-71
2022/03/02 03:29:06;;;;;;;88.50;40.90;;;;;;;-2.18;52.88;99875.27;106109;1273;98990;-71
2022/03/02 03:31:34;;;;;;;93.50;42.30;;;;;;;-2.22;52.98;99871.29;106165;1273;95299;-69
2022/03/02 03:34:02;;;;;;;85.30;40.10;;;;;;;-2.23;52.95;99872.17;105976;1273;189241;-70
2022/03/02 03:36:30;;;;;;;81.90;38.60;;;;;;;-2.23;52.91;99869.73;106260;1273;97941;-71
2022/03/02 03:38:58;;;;;;;90.80;43.80;;;;;;;-2.20;52.94;99866.41;106230;1273;106704;-71
2022/03/02 03:41:25;;;;;;;90.40;42.30;;;;;;;-2.19;53.06;99865.00;106246;1273;95204;-71
2022/03/02 03:43:53;;;;;;;88.40;42.90;;;;;;;-2.19;52.72;99858.40;106202;1274;97955;-71
2022/03/02 03:46:21;;;;;;;88.20;41.80;;;;;;;-2.16;52.99;99861.17;106223;1274;111353;-71
2022/03/02 03:48:50;;;;;;;90.70;46.80;;;;;;;-2.14;52.99;99859.23;106219;1274;97886;-71
2022/03/02 03:51:18;;;;;;;87.30;40.30;;;;;;;-2.16;53.10;99864.48;106191;1274;107750;-70
2022/03/02 03:53:46;;;;;;;94.70;44.60;;;;;;;-2.17;53.04;99867.26;106233;1273;97818;-68
2022/03/02 03:56:14;;;;;;;89.10;43.40;;;;;;;-2.18;53.10;99866.22;106213;1273;97929;-68
2022/03/02 03:58:41;;;;;;;93.40;42.40;;;;;;;-2.20;53.45;99872.33;106264;1273;110498;-68
2022/03/02 04:01:09;;;;;;;93.50;42.40;;;;;;;-2.23;53.45;99873.73;106187;1274;97912;-72
2022/03/02 04:03:38;;;;;;;86.60;41.70;;;;;;;-2.21;53.27;99880.31;106168;1274;107713;-71
2022/03/02 04:06:06;;;;;;;79.30;38.40;;;;;;;-2.16;53.41;99872.64;106162;1274;97959;-71
2022/03/02 04:08:34;;;;;;;77.80;37.70;;;;;;;-2.05;53.28;99869.25;106238;1273;97861;-69
2022/03/02 04:11:03;;;;;;;81.90;38.60;;;;;;;-1.99;53.18;99867.98;106188;1273;111327;-70
2022/03/02 04:13:32;;;;;;;80.80;38.90;;;;;;;-1.96;53.17;99868.48;106236;1273;97909;-73
2022/03/02 04:16:01;;;;;;;85.00;40.20;;;;;;;-1.93;53.28;99867.07;106231;1273;106727;-70
2022/03/02 04:18:31;;;;;;;79.50;38.10;;;;;;;-1.91;53.25;99867.55;106175;1273;97973;-70
2022/03/02 04:21:01;;;;;;;80.30;40.00;;;;;;;-1.86;53.54;99870.31;106155;1272;95158;-70
2022/03/02 04:23:30;;;;;;;84.00;38.30;;;;;;;-1.79;53.50;99869.02;106142;1274;111418;-69
2022/03/02 04:25:59;;;;;;;86.20;39.30;;;;;;;-1.74;53.35;99868.28;106243;1273;98044;-67
2022/03/02 04:28:29;;;;;;;83.60;40.10;;;;;;;-1.71;53.60;99865.83;106192;1273;107694;-69
2022/03/02 04:30:57;;;;;;;81.00;39.30;;;;;;;-1.69;53.59;99862.32;106206;1273;97992;-72
2022/03/02 04:33:25;;;;;;;79.30;38.10;;;;;;;-1.67;53.83;99859.00;106210;1273;97860;-72
2022/03/02 04:35:53;;;;;;;79.10;39.00;;;;;;;-1.66;53.64;99858.30;106183;1273;110462;-70
2022/03/02 04:38:21;;;;;;;89.20;42.60;;;;;;;-1.66;53.62;99858.98;106214;1273;96252;-73
2022/03/02 04:40:49;;;;;;;84.50;40.40;;;;;;;-1.65;53.67;99857.42;106199;1273;107746;-72
2022/03/02 04:43:17;;;;;;;81.80;39.60;;;;;;;-1.65;53.71;99856.73;106200;1273;97794;-70
2022/03/02 04:45:46;;;;;;;85.00;39.30;;;;;;;-1.65;53.99;99855.51;106175;1274;97868;-71
2022/03/02 04:48:14;;;;;;;80.60;38.10;;;;;;;-1.64;53.81;99852.55;106220;1273;112307;-73
2022/03/02 04:50:48;;;;;;;76.60;35.90;;;;;;;-1.63;53.97;99849.23;106188;1273;97877;-72
2022/03/02 04:53:16;;;;;;;78.30;37.20;;;;;;;-1.63;53.80;99848.86;106155;1274;107787;-71
2022/03/02 04:55:45;;;;;;;74.60;36.60;;;;;;;-1.63;53.81;99845.73;106166;1274;97889;-71
2022/03/02 04:58:13;;;;;;;78.80;38.20;;;;;;;-1.63;53.78;99847.66;106209;1274;97848;-71
2022/03/02 05:00:41;;;;;;;79.40;35.20;;;;;;;-1.63;54.35;99852.88;106160;1274;111438;-68
2022/03/02 05:03:09;;;;;;;77.00;36.20;;;;;;;-1.60;53.95;99856.15;106219;1274;97817;-71
2022/03/02 05:05:38;;;;;;;72.40;33.40;;;;;;;-1.57;53.99;99855.59;106130;1274;107651;-72
2022/03/02 05:08:08;;;;;;;78.70;35.20;;;;;;;-1.50;53.89;99850.13;106181;1273;97970;-72
2022/03/02 05:10:36;;;;;;;70.20;34.90;;;;;;;-1.41;54.03;99848.64;106283;1274;97876;-72
2022/03/02 05:13:05;;;;;;;72.30;34.10;;;;;;;-1.32;54.14;99848.38;106162;1273;111440;-71
2022/03/02 05:15:32;;;;;;;75.70;36.00;;;;;;;-1.23;54.36;99849.48;106234;1273;98088;-71
2022/03/02 05:18:02;;;;;;;79.90;36.60;;;;;;;-1.15;54.42;99847.65;106171;1274;107706;-74
2022/03/02 05:20:30;;;;;;;76.10;37.90;;;;;;;-1.09;54.66;99845.13;106209;1273;95241;-72
2022/03/02 05:22:58;;;;;;;80.20;39.40;;;;;;;-1.03;54.63;99840.54;106169;1274;98062;-69
2022/03/02 05:25:26;;;;;;;79.90;37.80;;;;;;;-1.01;54.39;99842.42;105987;1274;111424;-70
2022/03/02 05:27:54;;;;;;;84.20;37.40;;;;;;;-0.99;54.64;99847.27;106194;1273;97842;-71
2022/03/02 05:30:22;;;;;;;80.00;38.30;;;;;;;-1.00;54.68;99845.02;106131;1273;107673;-70
2022/03/02 05:32:50;;;;;;;77.60;36.90;;;;;;;-0.99;54.59;99844.30;106100;1274;95272;-72
2022/03/02 05:35:18;;;;;;;74.50;35.60;;;;;;;-0.99;54.82;99840.65;106204;1273;95130;-71
2022/03/02 05:37:47;;;;;;;79.30;37.60;;;;;;;-1.01;54.84;99839.46;106242;1273;111431;-73
2022/03/02 05:40:19;;;;;;;78.70;36.90;;;;;;;-1.01;54.81;99837.03;106173;1273;96993;-72
2022/03/02 05:42:56;;;;;;;75.40;34.40;;;;;;;-1.02;54.75;99842.44;106113;1274;107877;-71
2022/03/02 05:45:24;;;;;;;73.60;36.30;;;;;;;-1.03;54.67;99843.50;106173;1273;97889;-68
2022/03/02 05:47:52;;;;;;;74.20;37.20;;;;;;;-1.05;55.01;99841.44;106144;1273;95239;-70
2022/03/02 05:50:20;;;;;;;73.10;35.80;;;;;;;-1.03;55.10;99838.98;106157;1273;111373;-71
2022/03/02 05:52:48;;;;;;;71.10;35.30;;;;;;;-1.03;54.95;99839.83;106037;1273;97940;-71
2022/03/02 05:55:16;;;;;;;75.30;36.40;;;;;;;-1.05;54.99;99841.78;105994;1273;107655;-71
2022/03/02 05:57:44;;;;;;;67.20;33.90;;;;;;;-1.06;55.02;99844.05;105944;1274;97933;-71
2022/03/02 06:00:13;;;;;;;72.40;34.60;;;;;;;-1.05;54.95;99845.95;105975;1274;98526;-71
2022/03/02 06:02:44;;;;;;;67.90;32.60;;;;;;;-1.01;54.89;99846.07;106148;1273;111858;-70
2022/03/02 06:05:12;;;;;;;67.50;31.90;;;;;;;-0.96;54.77;99844.10;106099;1273;97942;-70
2022/03/02 06:07:40;;;;;;;67.40;31.60;;;;;;;-0.94;54.80;99847.05;106029;1274;107819;-70
2022/03/02 06:10:10;;;;;;;68.40;32.50;;;;;;;-0.94;54.86;99849.81;106070;1274;97996;-70
2022/03/02 06:12:38;;;;;;;70.80;32.90;;;;;;;-0.91;54.87;99850.65;106072;1273;98761;-70
2022/03/02 06:15:08;;;;;;;78.40;35.80;;;;;;;-0.88;55.09;99854.79;106053;1273;109626;-71
2022/03/02 06:17:36;;;;;;;69.50;34.00;;;;;;;-0.81;55.13;99851.75;106014;1273;97943;-71
2022/03/02 06:20:06;;;;;;;69.00;35.50;;;;;;;-0.79;55.08;99849.09;106090;1273;107758;-70
2022/03/02 06:22:38;;;;;;;65.10;33.70;;;;;;;-0.76;55.31;99850.64;106094;1274;97949;-70
2022/03/02 06:25:07;;;;;;;71.40;35.00;;;;;;;-0.75;55.25;99849.39;106100;1273;97874;-70
2022/03/02 06:27:36;;;;;;;68.20;33.90;;;;;;;-0.78;55.13;99846.81;106042;1274;110862;-71
2022/03/02 06:30:08;;;;;;;71.20;34.70;;;;;;;-0.78;55.32;99849.95;106072;1274;97853;-71
2022/03/02 06:32:36;;;;;;;73.20;34.40;;;;;;;-0.78;55.39;99852.58;106015;1273;107724;-72
2022/03/02 06:35:07;;;;;;;81.60;34.80;;;;;;;-0.84;55.36;99851.09;105943;1273;95906;-72
2022/03/02 06:37:36;;;;;;;67.20;32.60;;;;;;;-0.90;55.35;99855.33;105982;1274;96614;-70
2022/03/02 06:40:08;;;;;;;68.20;33.40;;;;;;;-0.87;55.65;99856.88;106029;1273;112167;-71
2022/03/02 06:42:48;;;;;;;66.60;34.10;;;;;;;-0.86;55.68;99859.13;106044;1274;97891;-71
2022/03/02 06:45:27;;;;;;;70.40;33.20;;;;;;;-0.84;55.67;99861.02;106011;1273;107872;-70
2022/03/02 06:48:09;;;;;;;70.20;34.20;;;;;;;-0.81;55.63;99857.83;106018;1273;95260;-70
2022/03/02 06:50:43;;;;;;;71.60;33.20;;;;;;;-0.78;55.63;99861.10;106074;1273;95208;-70
2022/03/02 06:53:15;;;;;;;74.30;34.90;;;;;;;-0.76;55.50;99857.94;106068;1273;109731;-70
2022/03/02 06:55:45;;;;;;;68.40;32.90;;;;;;;-0.77;55.56;99863.52;106055;1273;95229;-68
2022/03/02 06:58:14;;;;;;;68.30;31.80;;;;;;;-0.81;55.34;99861.30;106104;1273;107741;-71
2022/03/02 07:00:52;;;;;;;63.90;30.50;;;;;;;-0.82;55.48;99859.06;106085;1273;97981;-71
2022/03/02 07:03:26;;;;;;;67.30;31.10;;;;;;;-0.76;55.72;99858.65;106124;1273;97956;-71
2022/03/02 07:05:55;;;;;;;;;;;;;;;-0.70;55.79;99861.70;106153;1273;111460;-69
2022/03/02 07:08:27;;;;;;;70.40;33.50;;;;;;;-0.68;55.74;99862.37;106043;1273;95167;-70
2022/03/02 07:10:55;;;;;;;62.00;30.90;;;;;;;-0.67;55.45;99855.91;106090;1273;107737;-69
2022/03/02 07:13:27;;;;;;;69.80;34.20;;;;;;;-0.63;55.77;99857.25;106152;1273;97937;-71
2022/03/02 07:16:00;;;;;;;77.50;34.60;;;;;;;-0.60;55.64;99859.98;106130;1271;97909;-71
2022/03/02 07:18:28;;;;;;;75.80;36.60;;;;;;;-0.54;55.84;99862.16;106175;1274;111411;-71
2022/03/02 07:20:58;;;;;;;68.90;35.60;;;;;;;-0.49;55.92;99862.10;106162;1273;97854;-71
2022/03/02 07:23:34;;;;;;;75.80;34.90;;;;;;;-0.46;55.96;99863.45;105982;1273;107362;-69
2022/03/02 07:26:02;;;;;;;73.70;33.90;;;;;;;-0.45;55.83;99865.88;106056;1273;96297;-71
2022/03/02 07:28:37;;;;;;;75.40;34.70;;;;;;;-0.46;55.73;99860.13;106112;1274;97964;-70
2022/03/02 07:31:08;;;;;;;71.50;35.40;;;;;;;-0.44;55.81;99858.89;106042;1274;111268;-71
2022/03/02 07:33:42;;;;;;;72.10;36.50;;;;;;;-0.40;55.99;99858.99;106132;1273;97854;-73
2022/03/02 07:36:11;;;;;;;73.10;37.40;;;;;;;-0.41;55.82;99857.46;106041;1274;107756;-71
2022/03/02 07:38:39;;;;;;;75.50;37.20;;;;;;;-0.42;55.85;99853.46;106081;1274;98574;-71
2022/03/02 07:41:09;;;;;;;73.20;36.90;;;;;;;-0.37;55.98;99848.66;106064;1274;97910;-71
2022/03/02 07:43:39;;;;;;;69.50;36.20;;;;;;;-0.35;56.09;99847.58;106109;1274;112688;-70
2022/03/02 07:46:10;;;;;;;76.60;37.40;;;;;;;-0.35;56.06;99847.58;106109;1274;97869;-68
2022/03/02 07:48:39;;;;;;;75.60;38.20;;;;;;;-0.32;56.17;99844.77;106122;1273;107723;-71
2022/03/02 07:51:09;;;;;;;79.70;37.50;;;;;;;-0.28;56.05;99844.52;106079;1274;96606;-70
2022/03/02 07:53:43;;;;;;;71.10;35.50;;;;;;;-0.28;56.14;99843.13;106228;1273;97860;-70
2022/03/02 07:56:14;;;;;;;74.50;38.00;;;;;;;-0.27;56.10;99839.64;106105;1274;110838;-71
2022/03/02 07:58:44;;;;;;;68.30;33.80;;;;;;;-0.23;56.10;99835.40;106132;1273;97727;-71
2022/03/02 08:01:20;;;;;;;68.10;34.10;;;;;;;-0.16;56.25;99832.13;106261;1273;108596;-68
2022/03/02 08:03:48;;;;;;;67.40;34.40;;;;;;;-0.03;56.28;99828.27;106058;1273;97909;-69
2022/03/02 08:06:17;;;;;;;70.60;34.80;;;;;;;0.10;56.35;99822.98;106027;1273;97903;-70
2022/03/02 08:08:45;;;;;;;66.90;34.70;;;;;;;0.22;56.31;99820.84;106059;1273;109865;-71
2022/03/02 08:11:14;;;;;;;69.60;35.20;;;;;;;0.30;56.38;99819.83;105989;1274;97825;-68
2022/03/02 08:13:42;;;;;;;65.00;33.20;;;;;;;0.39;56.52;99817.56;106672;1272;105793;-71
2022/03/02 08:16:11;;;;;;;64.80;32.50;;;;;;;0.46;56.48;99812.39;106014;1273;97853;-70
2022/03/02 08:18:39;;;;;;;61.40;32.30;;;;;;;0.49;56.61;99811.61;106071;1273;96451;-71
2022/03/02 08:21:11;;;;;;;66.40;35.20;;;;;;;0.49;56.33;99815.28;106090;1273;111467;-70
2022/03/02 08:23:44;;;;;;;72.20;35.50;;;;;;;0.49;56.49;99807.77;106045;1273;97896;-70
2022/03/02 08:26:18;;;;;;;60.80;32.90;;;;;;;0.51;56.45;99805.14;106103;1273;107793;-69
2022/03/02 08:28:47;;;;;;;72.20;35.20;;;;;;;0.55;56.57;99804.00;106070;1273;96296;-70
2022/03/02 08:31:16;;;;;;;68.20;35.30;;;;;;;0.60;56.66;99806.52;106067;1273;96976;-70
2022/03/02 08:33:49;;;;;;;66.40;36.60;;;;;;;0.70;56.73;99800.05;106055;1273;111447;-70
2022/03/02 08:36:22;;;;;;;69.60;35.40;;;;;;;0.79;56.58;99796.37;106012;1273;98393;-71
2022/03/02 08:38:52;;;;;;;66.00;33.40;;;;;;;0.85;56.66;99795.00;106152;1273;107760;-70
2022/03/02 08:41:21;;;;;;;66.50;33.90;;;;;;;0.94;56.74;99795.33;106169;1273;98545;-71
2022/03/02 08:43:50;;;;;;;75.90;39.80;;;;;;;0.98;56.73;99787.93;106150;1274;95211;-70
2022/03/02 08:46:18;;;;;;;71.50;36.10;;;;;;;1.02;56.67;99788.17;106136;1273;111453;-69
2022/03/02 08:48:49;;;;;;;71.70;39.20;;;;;;;1.06;56.75;99784.96;106154;1273;95287;-70
2022/03/02 08:51:22;;;;;;;68.80;36.30;;;;;;;1.14;56.82;99784.45;106081;1273;107846;-69
2022/03/02 08:53:58;;;;;;;68.80;36.60;;;;;;;1.24;57.00;99781.59;106245;1273;95262;-74
2022/03/02 08:56:28;;;;;;;69.00;35.30;;;;;;;1.37;57.14;99779.89;106240;1273;97993;-75
2022/03/02 08:58:55;;;;;;;72.10;36.80;;;;;;;1.50;57.10;99776.98;106060;1273;110166;-73
2022/03/02 09:01:31;;;;;;;71.40;38.40;;;;;;;1.63;57.10;99771.41;106040;1273;97962;-71
2022/03/02 09:04:02;;;;;;;73.30;38.20;;;;;;;1.74;56.89;99770.44;105966;1273;107621;-70
2022/03/02 09:06:35;;;;;;;75.70;38.40;;;;;;;1.75;57.05;99764.81;106099;1274;97915;-71
2022/03/02 09:09:06;;;;;;;68.60;37.40;;;;;;;1.82;57.04;99763.44;106076;1273;97959;-70
2022/03/02 09:11:35;;;;;;;74.90;39.70;;;;;;;1.97;57.04;99756.58;106050;1273;111427;-69
2022/03/02 09:14:03;;;;;;;63.00;33.20;;;;;;;2.16;56.99;99757.63;106058;1273;97764;-74
2022/03/02 09:16:32;;;;;;;68.60;33.90;;;;;;;2.39;57.30;99749.13;106012;1273;108924;-71
2022/03/02 09:19:00;;;;;;;66.30;35.40;;;;;;;2.66;57.66;99746.61;106315;1273;96335;-69
2022/03/02 09:21:31;;;;;;;65.10;34.00;;;;;;;2.91;57.33;99743.95;106027;1273;96409;-70
2022/03/02 09:24:00;;;;;;;59.80;31.10;;;;;;;3.07;56.97;99742.07;106077;1273;111460;-70
2022/03/02 09:26:32;;;;;;;62.20;32.50;;;;;;;3.21;57.16;99742.48;105977;1274;96342;-69
2022/03/02 09:29:04;;;;;;;57.30;28.30;;;;;;;3.39;57.13;99738.44;106014;1274;107734;-70
2022/03/02 09:31:36;;;;;;;51.60;26.40;;;;;;;3.60;57.46;99740.02;106060;1274;97993;-67
2022/03/02 09:34:09;;;;;;;57.10;28.90;;;;;;;3.86;57.56;99737.22;106099;1273;97888;-70
2022/03/02 09:36:38;;;;;;;48.10;26.10;;;;;;;4.03;57.28;99730.35;106134;1274;110966;-70
2022/03/02 09:39:09;;;;;;;54.40;28.30;;;;;;;4.22;57.42;99727.91;106145;1273;96605;-70
2022/03/02 09:41:42;;;;;;;50.70;26.40;;;;;;;4.38;57.45;99722.80;106129;1273;107726;-71
2022/03/02 09:44:13;;;;;;;51.30;27.50;;;;;;;4.45;57.58;99723.40;106127;1273;97884;-67
2022/03/02 09:46:49;;;;;;;48.40;25.70;;;;;;;4.53;57.55;99718.35;106223;1273;97973;-72
2022/03/02 09:49:22;;;;;;;54.80;27.40;;;;;;;4.56;57.35;99717.35;106097;1273;111275;-66
2022/03/02 09:52:03;;;;;;;54.50;28.10;;;;;;;4.42;57.19;99708.75;106106;1274;97957;-70
2022/03/02 09:54:37;;;;;;;58.70;29.00;;;;;;;4.29;56.85;99709.77;106127;1273;107740;-70
2022/03/02 09:57:08;;;;;;;55.60;27.10;;;;;;;4.15;56.68;99705.17;106058;1273;97951;-68
2022/03/02 09:59:39;;;;;;;47.20;24.50;;;;;;;4.10;56.88;99701.65;105924;1274;97874;-68
2022/03/02 10:02:10;;;;;;;42.40;20.90;;;;;;;4.16;57.45;99698.63;105986;1274;111020;-70
2022/03/02 10:04:50;;;;;;;48.30;24.20;;;;;;;4.36;57.46;99693.52;106043;1273;97946;-70
2022/03/02 10:07:30;;;;;;;49.00;24.60;;;;;;;4.47;57.23;99685.39;106021;1273;107972;-70
2022/03/02 10:10:08;;;;;;;49.50;24.90;;;;;;;4.50;57.03;99680.73;106008;1273;97829;-70
2022/03/02 10:12:37;;;;;;;51.80;25.30;;;;;;;4.46;57.06;99671.55;106063;1273;97867;-72
2022/03/02 10:15:14;;;;;;;43.60;23.10;;;;;;;4.44;57.03;99668.30;106082;1273;111399;-70
2022/03/02 10:17:48;;;;;;;49.30;24.00;;;;;;;4.50;57.13;99661.94;106049;1273;96412;-71
2022/03/02 10:20:25;;;;;;;50.80;25.50;;;;;;;4.62;57.25;99654.80;106083;1273;107744;-71
2022/03/02 10:23:21;;;;;;;50.50;24.50;;;;;;;4.79;57.41;99655.73;106137;1273;95916;-71
2022/03/02 10:26:08;;;;;;;50.60;24.80;;;;;;;4.88;57.18;99652.91;106021;1274;98389;-72
2022/03/02 10:28:39;;;;;;;46.70;24.00;;;;;;;4.95;57.18;99652.80;106002;1273;111381;-71
2022/03/02 10:31:36;;;;;;;45.30;24.00;;;;;;;4.98;57.08;99651.27;106105;1273;97854;-71
2022/03/02 10:34:32;;;;;;;45.30;23.30;;;;;;;5.01;57.08;99647.80;105939;1273;107840;-72
2022/03/02 10:37:15;;;;;;;36.60;16.30;;;;;;;5.01;56.97;99645.90;105966;1275;98405;-67
2022/03/02 10:40:12;;;;;;;29.60;12.90;;;;;;;5.01;57.03;99640.77;106167;1273;98553;-69
2022/03/02 10:42:57;;;;;;;34.50;15.20;;;;;;;5.12;57.05;99636.67;106039;1273;110357;-70
2022/03/02 10:45:46;;;;;;;27.20;12.40;;;;;;;5.25;57.14;99635.92;105995;1273;95420;-70
2022/03/02 10:48:21;;;;;;;35.80;13.50;;;;;;;5.38;57.17;99630.85;105991;1273;107826;-73
2022/03/02 10:50:59;;;;;;;29.30;12.20;;;;;;;5.47;56.99;99630.65;106103;1275;98036;-72
2022/03/02 10:53:35;;;;;;;35.50;14.00;;;;;;;5.57;57.05;99627.89;106180;1274;97906;-71
2022/03/02 10:56:08;;;;;;;24.80;11.90;;;;;;;5.63;56.80;99624.48;106100;1273;112590;-70
2022/03/02 10:58:50;;;;;;;29.20;12.90;;;;;;;5.66;56.84;99620.16;106003;1273;97822;-70
2022/03/02 11:01:21;;;;;;;34.30;13.90;;;;;;;5.73;56.89;99614.73;106078;1273;106888;-70
2022/03/02 11:03:49;;;;;;;29.30;14.20;;;;;;;5.75;56.95;99611.27;106023;1273;97867;-69
2022/03/02 11:06:24;;;;;;;27.80;12.60;;;;;;;5.79;56.95;99604.63;106125;1273;96551;-71
2022/03/02 11:09:00;;;;;;;32.60;15.00;;;;;;;5.87;56.86;99601.80;106079;1274;111371;-70
2022/03/02 11:11:37;;;;;;;28.70;14.10;;;;;;;5.98;56.89;99598.35;106102;1274;95386;-72
2022/03/02 11:14:10;;;;;;;37.30;13.60;;;;;;;6.06;57.00;99593.40;106153;1273;107429;-71
2022/03/02 11:16:38;;;;;;;28.80;13.60;;;;;;;6.14;56.89;99584.23;106143;1273;97890;-70
2022/03/02 11:19:13;;;;;;;27.30;12.90;;;;;;;6.20;56.89;99586.25;106227;1273;97846;-72
2022/03/02 11:21:44;;;;;;;31.90;12.70;;;;;;;6.23;56.89;99582.05;106136;1274;110554;-71